Time;durP1;ratioP1;P1;durP2;ratioP2;P2;SDS_P1;SDS_P2;PMS_P1;PMS_P2;Temp;Humidity;BMP_temperature;BMP_pressure;BME280_temperature;BME280_humidity;BME280_pressure;Samples;Min_cycle;Max_cycle;Signal;HPM_P1;HPM_P2
2022/11/23 00:01:23;;;;;;;123.10;61.77;;;;;;;-1.06;100.00;96935.01;1739071;82;21043;-76
2022/11/23 00:03:54;;;;;;;131.72;68.72;;;;;;;-1.07;100.00;96929.92;1738962;81;21460;-80
2022/11/23 00:06:21;;;;;;;141.45;65.10;;;;;;;-1.10;100.00;96930.41;1739270;82;21044;-76
2022/11/23 00:08:48;;;;;;;123.80;59.65;;;;;;;-1.09;100.00;96923.52;1738805;81;21063;-81
2022/11/23 00:11:15;;;;;;;126.53;64.87;;;;;;;-1.09;100.00;96924.04;1739232;82;21501;-76
2022/11/23 00:13:42;;;;;;;125.20;60.15;;;;;;;-1.12;100.00;96924.48;1738936;81;20985;-76
2022/11/23 00:16:14;;;;;;;109.75;56.10;;;;;;;-1.11;100.00;96932.75;1739041;82;20977;-76
2022/11/23 00:18:41;;;;;;;123.38;61.20;;;;;;;-1.13;100.00;96925.01;1738435;81;21055;-77
2022/11/23 00:21:10;;;;;;;120.57;55.65;;;;;;;-1.19;100.00;96924.10;1739332;82;20965;-76
2022/11/23 00:23:37;;;;;;;105.15;54.75;;;;;;;-1.17;100.00;96920.69;1738836;81;21051;-76
2022/11/23 00:26:04;;;;;;;119.17;56.15;;;;;;;-1.19;100.00;96921.97;1739210;82;21016;-77
2022/11/23 00:28:32;;;;;;;124.85;57.60;;;;;;;-1.20;100.00;96927.80;1738784;81;21413;-81
2022/11/23 00:30:59;;;;;;;111.20;58.13;;;;;;;-1.22;100.00;96934.37;1739164;82;21032;-81
2022/11/23 00:33:25;;;;;;;117.87;57.50;;;;;;;-1.25;100.00;96925.02;1738897;81;20969;-81
2022/11/23 00:36:05;;;;;;;110.95;55.58;;;;;;;-1.23;100.00;96930.09;1739129;82;21035;-77
2022/11/23 00:38:32;;;;;;;109.27;54.65;;;;;;;-1.23;100.00;96926.92;1738660;81;21060;-76
2022/11/23 00:41:06;;;;;;;117.53;55.88;;;;;;;-1.22;100.00;96933.05;1727374;82;20966;-81
2022/11/23 00:43:33;;;;;;;118.17;57.45;;;;;;;-1.22;100.00;96933.84;1686865;83;21020;-76
2022/11/23 00:46:07;;;;;;;100.72;49.88;;;;;;;-1.19;100.00;96932.59;1685553;84;20974;-80
2022/11/23 00:48:34;;;;;;;98.47;51.33;;;;;;;-1.12;100.00;96933.79;1685311;83;21060;-76
2022/11/23 00:51:02;;;;;;;115.45;55.80;;;;;;;-1.08;100.00;96931.78;1685702;85;21477;-76
2022/11/23 00:53:29;;;;;;;103.07;55.08;;;;;;;-1.04;100.00;96930.27;1685305;83;20957;-77
2022/11/23 00:55:56;;;;;;;119.57;58.17;;;;;;;-0.99;100.00;96922.41;1685654;84;21472;-81
2022/11/23 00:58:23;;;;;;;124.18;60.23;;;;;;;-0.95;100.00;96924.06;1685360;83;21052;-76
2022/11/23 01:00:50;;;;;;;106.00;54.75;;;;;;;-0.92;100.00;96920.97;1685593;85;21024;-81
2022/11/23 01:03:17;;;;;;;120.67;59.20;;;;;;;-0.92;100.00;96919.11;1675256;84;21053;-80
2022/11/23 01:05:44;;;;;;;94.42;47.00;;;;;;;-0.93;100.00;96916.69;1685562;85;21398;-77
2022/11/23 01:08:11;;;;;;;94.45;44.30;;;;;;;-0.91;100.00;96927.38;1685384;83;20997;-77
2022/11/23 01:10:38;;;;;;;100.07;46.63;;;;;;;-0.91;100.00;96925.23;1685702;84;20977;-81
2022/11/23 01:13:05;;;;;;;92.33;45.28;;;;;;;-0.89;100.00;96928.47;1685535;83;20969;-81
2022/11/23 01:15:31;;;;;;;95.62;48.02;;;;;;;-0.88;100.00;96917.59;1685529;84;21009;-77
2022/11/23 01:17:58;;;;;;;84.85;45.05;;;;;;;-0.83;100.00;96926.21;1685441;83;20974;-81
2022/11/23 01:20:25;;;;;;;94.67;45.17;;;;;;;-0.82;100.00;96923.03;1685590;84;20977;-77
2022/11/23 01:22:52;;;;;;;99.75;50.75;;;;;;;-0.83;100.00;96920.89;1685222;83;21418;-81
2022/11/23 01:25:19;;;;;;;113.37;57.03;;;;;;;-0.81;100.00;96920.13;1685664;84;21024;-81
2022/11/23 01:27:46;;;;;;;118.00;56.65;;;;;;;-0.82;100.00;96925.16;1685529;83;21090;-77
2022/11/23 01:30:13;;;;;;;119.42;59.03;;;;;;;-0.85;100.00;96913.67;1685516;84;21004;-81
2022/11/23 01:32:40;;;;;;;111.40;57.00;;;;;;;-0.83;100.00;96912.11;1685529;83;21064;-77
2022/11/23 01:35:08;;;;;;;107.40;56.08;;;;;;;-0.84;100.00;96912.63;1685643;84;21010;-77
2022/11/23 01:37:34;;;;;;;110.42;56.73;;;;;;;-0.86;100.00;96908.84;1685398;83;21492;-81
2022/11/23 01:40:01;;;;;;;103.30;54.30;;;;;;;-0.89;100.00;96914.64;1687697;83;21000;-81
2022/11/23 01:42:50;;;;;;;105.87;53.02;;;;;;;-0.90;100.00;96917.02;1714044;83;21071;-81
2022/11/23 01:45:40;;;;;;;97.78;50.88;;;;;;;-0.87;100.00;96912.55;1714152;82;21008;-81
2022/11/23 01:48:21;;;;;;;96.60;51.60;;;;;;;-0.88;100.00;96904.29;1704014;83;20998;-76
2022/11/23 01:50:49;;;;;;;105.55;54.73;;;;;;;-0.83;100.00;96917.42;1714335;83;21007;-76
2022/11/23 01:53:16;;;;;;;77.70;38.65;;;;;;;-0.92;100.00;96917.78;1714136;83;21035;-76
2022/11/23 01:55:45;;;;;;;100.92;49.10;;;;;;;-0.92;100.00;96923.63;1714197;83;20998;-76
2022/11/23 01:58:15;;;;;;;109.57;56.58;;;;;;;-0.95;100.00;96916.89;1714254;83;20943;-81
2022/11/23 02:00:41;;;;;;;112.12;53.73;;;;;;;-0.96;100.00;96912.63;1714220;82;21011;-76
2022/11/23 02:03:08;;;;;;;108.15;54.42;;;;;;;-0.96;100.00;96909.97;1714143;83;21023;-81
2022/11/23 02:05:40;;;;;;;103.45;51.85;;;;;;;-0.99;100.00;96902.46;1714282;83;21004;-76
2022/11/23 02:08:07;;;;;;;98.50;46.50;;;;;;;-0.95;100.00;96900.13;1714069;83;21014;-81
2022/11/23 02:10:34;;;;;;;86.02;45.75;;;;;;;-0.93;100.00;96896.22;1714184;83;21495;-77
2022/11/23 02:13:06;;;;;;;94.97;48.75;;;;;;;-0.95;100.00;96896.14;1714135;83;21003;-76
2022/11/23 02:15:33;;;;;;;91.40;48.30;;;;;;;-0.98;100.00;96882.80;1714144;82;21022;-81
2022/11/23 02:18:03;;;;;;;87.15;42.67;;;;;;;-0.93;100.00;96890.90;1714145;83;21038;-77
2022/11/23 02:20:30;;;;;;;84.72;45.85;;;;;;;-0.91;100.00;96890.14;1714201;83;20975;-80
2022/11/23 02:23:15;;;;;;;96.42;43.80;;;;;;;-0.92;100.00;96885.86;1713985;83;21046;-76
2022/11/23 02:26:01;;;;;;;81.10;42.83;;;;;;;-0.86;100.00;96882.25;1714367;82;20995;-76
2022/11/23 02:28:33;;;;;;;81.28;40.85;;;;;;;-0.85;100.00;96889.73;1713929;82;21058;-77
2022/11/23 02:31:01;;;;;;;91.37;46.70;;;;;;;-0.86;100.00;96893.41;1728129;82;21008;-81
2022/11/23 02:33:29;;;;;;;92.57;48.95;;;;;;;-0.87;100.00;96891.27;1713956;83;20956;-81
2022/11/23 02:35:58;;;;;;;96.65;44.48;;;;;;;-0.86;100.00;96888.89;1714305;83;20947;-77
2022/11/23 02:38:31;;;;;;;80.90;43.68;;;;;;;-0.83;100.00;96890.30;1713895;83;20948;-81
2022/11/23 02:40:58;;;;;;;92.90;46.50;;;;;;;-0.82;100.00;96887.12;1716629;83;20973;-77
2022/11/23 02:43:25;;;;;;;103.87;48.85;;;;;;;-0.97;100.00;96891.59;1714295;83;21392;-77
2022/11/23 02:45:58;;;;;;;115.70;54.80;;;;;;;-0.95;100.00;96890.83;1714143;82;20998;-81
2022/11/23 02:48:25;;;;;;;93.12;47.10;;;;;;;-0.93;100.00;96886.91;1714138;83;21392;-81
2022/11/23 02:50:52;;;;;;;77.82;40.45;;;;;;;-0.91;100.00;96891.99;1714075;83;20948;-81
2022/11/23 02:53:19;;;;;;;77.97;40.60;;;;;;;-0.87;100.00;96897.12;1714092;82;20952;-77
2022/11/23 02:55:46;;;;;;;74.20;38.38;;;;;;;-0.84;100.00;96890.02;1714411;83;21015;-81
2022/11/23 02:58:13;;;;;;;68.95;35.05;;;;;;;-0.83;100.00;96900.94;1714055;83;21384;-77
2022/11/23 03:00:40;;;;;;;69.50;36.58;;;;;;;-0.79;100.00;96898.61;1714305;83;21018;-81
2022/11/23 03:03:06;;;;;;;74.35;37.58;;;;;;;-0.79;100.00;96898.09;1714084;83;21050;-81
2022/11/23 03:05:33;;;;;;;64.55;34.95;;;;;;;-0.79;100.00;96895.42;1714313;83;21050;-77
2022/11/23 03:08:00;;;;;;;77.55;41.05;;;;;;;-0.76;100.00;96904.81;1714130;83;21695;-76
2022/11/23 03:10:27;;;;;;;75.72;40.90;;;;;;;-0.79;100.00;96895.42;1714230;83;21035;-76
2022/11/23 03:12:55;;;;;;;80.85;43.85;;;;;;;-0.80;100.00;96895.66;1714204;83;21050;-81
2022/11/23 03:15:23;;;;;;;93.03;46.08;;;;;;;-0.79;100.00;96894.62;1714258;82;21031;-77
2022/11/23 03:17:50;;;;;;;77.60;41.97;;;;;;;-0.80;100.00;96895.14;1714468;83;21031;-77
2022/11/23 03:20:17;;;;;;;78.70;42.50;;;;;;;-0.79;100.00;96895.95;1714344;83;21011;-77
2022/11/23 03:22:44;;;;;;;76.15;41.28;;;;;;;-0.77;100.00;96899.17;1713984;82;21129;-81
2022/11/23 03:25:11;;;;;;;81.60;44.23;;;;;;;-0.80;100.00;96907.64;1714011;83;21462;-77
2022/11/23 03:27:38;;;;;;;82.30;42.83;;;;;;;-0.81;100.00;96890.87;1714126;83;20963;-77
2022/11/23 03:30:07;;;;;;;70.17;39.98;;;;;;;-0.79;100.00;96894.09;1714294;83;20974;-81
2022/11/23 03:32:35;;;;;;;75.08;38.25;;;;;;;-0.80;100.00;96893.81;1714292;82;21104;-76
2022/11/23 03:35:03;;;;;;;69.27;37.20;;;;;;;-0.79;100.00;96894.62;1714190;83;21038;-76
2022/11/23 03:37:30;;;;;;;78.67;39.65;;;;;;;-0.79;100.00;96887.97;1714160;83;21074;-81
2022/11/23 03:39:57;;;;;;;73.42;39.60;;;;;;;-0.76;100.00;96885.67;1714490;83;20990;-77
2022/11/23 03:42:24;;;;;;;69.75;40.05;;;;;;;-0.72;100.00;96889.45;1716347;83;21059;-77
2022/11/23 03:44:51;;;;;;;97.62;50.75;;;;;;;-0.69;100.00;96886.84;1713865;83;20995;-76
2022/11/23 03:47:18;;;;;;;97.72;55.08;;;;;;;-0.65;100.00;96882.68;1714055;83;21016;-81
2022/11/23 03:49:45;;;;;;;100.07;55.65;;;;;;;-0.63;100.00;96879.26;1713974;83;20959;-76
2022/11/23 03:52:12;;;;;;;92.85;51.98;;;;;;;-0.64;100.00;96886.43;1714223;82;21030;-76
2022/11/23 03:54:39;;;;;;;100.20;53.02;;;;;;;-0.69;100.00;96884.98;1714081;83;20995;-77
2022/11/23 03:57:05;;;;;;;93.55;50.67;;;;;;;-0.72;100.00;96889.45;1714385;83;21471;-81
2022/11/23 03:59:32;;;;;;;81.90;47.65;;;;;;;-0.73;100.00;96887.84;1713863;83;21003;-81
2022/11/23 04:01:59;;;;;;;77.37;44.23;;;;;;;-0.79;100.00;96891.44;1714333;83;20972;-76
2022/11/23 04:04:26;;;;;;;101.58;48.23;;;;;;;-0.81;100.00;96888.73;1714136;83;21007;-76
2022/11/23 04:06:53;;;;;;;121.47;53.70;;;;;;;-0.82;100.00;96895.91;1714320;83;20973;-81
2022/11/23 04:09:20;;;;;;;121.62;55.17;;;;;;;-0.83;100.00;96900.13;1714014;83;21029;-77
2022/11/23 04:11:47;;;;;;;100.10;51.28;;;;;;;-0.83;100.00;96898.28;1714276;83;20974;-76
2022/11/23 04:14:14;;;;;;;123.02;55.38;;;;;;;-0.85;100.00;96895.05;1713955;83;21062;-77
2022/11/23 04:16:41;;;;;;;113.92;54.00;;;;;;;-0.88;100.00;96891.52;1714370;83;20987;-77
2022/11/23 04:19:08;;;;;;;112.40;50.25;;;;;;;-0.89;100.00;96881.92;1714105;83;21427;-77
2022/11/23 04:21:34;;;;;;;124.25;67.92;;;;;;;-0.88;100.00;96876.88;1714127;82;21090;-76
2022/11/23 04:24:02;;;;;;;96.20;48.63;;;;;;;-0.82;100.00;96873.81;1714051;83;21499;-77
2022/11/23 04:26:29;;;;;;;88.05;44.50;;;;;;;-0.79;100.00;96874.67;1714269;82;21427;-77
2022/11/23 04:28:56;;;;;;;100.58;48.17;;;;;;;-0.77;100.00;96877.89;1714047;83;20960;-81
2022/11/23 04:31:22;;;;;;;77.30;43.78;;;;;;;-0.77;100.00;96891.20;1714045;83;20983;-76
2022/11/23 04:33:49;;;;;;;92.65;47.25;;;;;;;-0.82;100.00;96887.12;1714197;83;21685;-81
2022/11/23 04:36:16;;;;;;;80.22;44.60;;;;;;;-0.81;100.00;96885.55;1714109;83;22047;-81
2022/11/23 04:38:43;;;;;;;89.67;48.13;;;;;;;-0.80;100.00;96883.17;1714022;83;20976;-81
2022/11/23 04:41:10;;;;;;;81.40;43.17;;;;;;;-0.77;100.00;96877.89;1709097;83;21030;-77
2022/11/23 04:43:37;;;;;;;89.55;44.03;;;;;;;-0.79;100.00;96877.33;1713952;83;21443;-77
2022/11/23 04:46:04;;;;;;;93.97;49.58;;;;;;;-0.80;100.00;96885.03;1714363;83;21420;-77
2022/11/23 04:48:31;;;;;;;97.00;50.25;;;;;;;-0.80;100.00;96885.83;1714026;83;20995;-76
2022/11/23 04:50:58;;;;;;;89.62;45.00;;;;;;;-0.77;100.00;96880.55;1714217;83;20999;-81
2022/11/23 04:53:25;;;;;;;81.87;43.60;;;;;;;-0.77;100.00;96881.39;1714060;82;21463;-81
2022/11/23 04:55:52;;;;;;;87.55;48.65;;;;;;;-0.76;100.00;96875.55;1714342;83;21094;-81
2022/11/23 04:58:19;;;;;;;81.75;42.27;;;;;;;-0.72;100.00;96873.50;1713958;83;21001;-81
2022/11/23 05:00:45;;;;;;;78.62;42.25;;;;;;;-0.71;100.00;96878.30;1714311;83;20996;-81
2022/11/23 05:03:12;;;;;;;83.67;46.90;;;;;;;-0.70;100.00;96879.91;1714024;83;21137;-81
2022/11/23 05:05:39;;;;;;;77.70;44.53;;;;;;;-0.72;100.00;96876.16;1714210;83;21423;-81
2022/11/23 05:08:07;;;;;;;104.30;55.55;;;;;;;-0.69;100.00;96878.86;1714105;82;20998;-77
2022/11/23 05:10:35;;;;;;;115.15;61.18;;;;;;;-0.67;100.00;96879.45;1714307;82;21011;-80
2022/11/23 05:13:02;;;;;;;114.10;58.27;;;;;;;-0.62;100.00;96879.54;1714238;83;21003;-81
2022/11/23 05:15:29;;;;;;;118.65;51.88;;;;;;;-0.61;100.00;96879.30;1714275;82;21691;-76
2022/11/23 05:18:05;;;;;;;110.48;48.85;;;;;;;-0.61;100.00;96872.64;1714160;82;20964;-80
2022/11/23 05:20:33;;;;;;;98.25;49.65;;;;;;;-0.59;100.00;96875.91;1714163;82;20998;-77
2022/11/23 05:23:00;;;;;;;107.00;50.80;;;;;;;-0.57;100.00;96878.32;1714159;83;20949;-76
2022/11/23 05:25:27;;;;;;;114.12;53.98;;;;;;;-0.58;100.00;96885.50;1714224;83;20979;-77
2022/11/23 05:27:53;;;;;;;128.05;61.95;;;;;;;-0.54;100.00;96891.66;1714085;83;21000;-81
2022/11/23 05:30:20;;;;;;;125.62;64.82;;;;;;;-0.56;100.00;96895.90;1713917;83;21007;-77
2022/11/23 05:32:47;;;;;;;127.38;58.95;;;;;;;-0.53;100.00;96895.41;1714248;83;21077;-80
2022/11/23 05:35:14;;;;;;;112.35;57.90;;;;;;;-0.50;100.00;96903.47;1713899;83;21472;-77
2022/11/23 05:37:41;;;;;;;103.83;57.93;;;;;;;-0.51;100.00;96902.66;1714238;82;20987;-77
2022/11/23 05:40:09;;;;;;;101.95;50.20;;;;;;;-0.54;100.00;96904.97;1714569;83;21459;-77
2022/11/23 05:42:36;;;;;;;95.72;47.10;;;;;;;-0.58;100.00;96910.78;1716371;83;28596;-81
2022/11/23 05:45:05;;;;;;;90.17;47.45;;;;;;;-0.54;100.00;96914.29;1714043;83;20995;-81
2022/11/23 05:47:32;;;;;;;102.45;52.43;;;;;;;-0.56;100.00;96902.55;1704182;83;20990;-77
2022/11/23 05:49:59;;;;;;;107.78;53.95;;;;;;;-0.53;100.00;96904.73;1713925;83;20955;-81
2022/11/23 05:52:25;;;;;;;112.52;56.92;;;;;;;-0.55;100.00;96908.16;1714289;83;21404;-76
2022/11/23 05:54:53;;;;;;;114.57;62.35;;;;;;;-0.53;100.00;96903.92;1714004;82;21015;-76
2022/11/23 05:57:21;;;;;;;125.58;59.77;;;;;;;-0.52;100.00;96906.87;1706823;82;20971;-76
2022/11/23 05:59:48;;;;;;;119.57;60.80;;;;;;;-0.50;100.00;96906.14;1712298;83;21210;-77
2022/11/23 06:02:15;;;;;;;129.40;61.90;;;;;;;-0.49;100.00;96909.89;1708764;82;21231;-81
2022/11/23 06:04:42;;;;;;;145.70;64.10;;;;;;;-0.48;100.00;96906.70;1711270;83;21002;-80
2022/11/23 06:07:09;;;;;;;145.50;67.70;;;;;;;-0.47;100.00;96903.80;1708569;83;21038;-77
2022/11/23 06:09:36;;;;;;;166.30;75.70;;;;;;;-0.46;100.00;96907.27;1709816;83;21017;-81
2022/11/23 06:12:04;;;;;;;183.97;89.37;;;;;;;-0.45;100.00;96908.88;1712649;82;21085;-81
2022/11/23 06:14:31;;;;;;;184.00;87.60;;;;;;;-0.44;100.00;96916.63;1709840;82;20962;-81
2022/11/23 06:16:58;;;;;;;178.78;83.17;;;;;;;-0.40;100.00;96916.45;1705023;82;21063;-76
2022/11/23 06:19:25;;;;;;;149.93;75.00;;;;;;;-0.36;100.00;96920.24;1701936;82;20958;-77
2022/11/23 06:21:52;;;;;;;157.47;77.12;;;;;;;-0.34;100.00;96921.36;1710171;82;21001;-81
2022/11/23 06:24:19;;;;;;;168.62;80.72;;;;;;;-0.37;100.00;96914.64;1707485;82;21458;-77
2022/11/23 06:26:46;;;;;;;172.82;82.65;;;;;;;-0.34;100.00;96907.53;1710634;82;20946;-80
2022/11/23 06:29:13;;;;;;;177.07;84.40;;;;;;;-0.30;100.00;96911.84;1690999;81;20988;-76
2022/11/23 06:31:40;;;;;;;164.20;80.87;;;;;;;-0.26;100.00;96918.30;1705612;83;20990;-77
2022/11/23 06:34:07;;;;;;;120.10;60.65;;;;;;;-0.27;100.00;96914.02;1712377;82;20995;-80
2022/11/23 06:36:34;;;;;;;89.77;48.05;;;;;;;-0.25;100.00;96910.62;1714024;83;21855;-76
2022/11/23 06:39:01;;;;;;;95.55;46.30;;;;;;;-0.24;100.00;96921.55;1709162;83;21545;-77
2022/11/23 06:41:28;;;;;;;100.50;44.80;;;;;;;-0.23;100.00;96916.51;1709447;82;21031;-81
2022/11/23 06:43:54;;;;;;;112.15;51.75;;;;;;;-0.23;100.00;96919.17;1710232;82;21001;-77
2022/11/23 06:46:21;;;;;;;91.78;51.35;;;;;;;-0.22;100.00;96922.64;1711624;82;21537;-81
2022/11/23 06:48:48;;;;;;;99.22;45.25;;;;;;;-0.22;100.00;96923.45;1703946;82;21438;-76
2022/11/23 06:51:15;;;;;;;89.30;45.63;;;;;;;-0.21;100.00;96924.25;1703683;82;20966;-76
2022/11/23 06:53:42;;;;;;;85.00;43.92;;;;;;;-0.17;100.00;96928.88;1706249;82;21125;-77
2022/11/23 06:56:09;;;;;;;100.20;42.27;;;;;;;-0.15;100.00;96928.64;1706842;82;21104;-77
2022/11/23 06:58:36;;;;;;;73.40;41.35;;;;;;;-0.13;100.00;96923.35;1705551;82;21036;-77
2022/11/23 07:01:06;;;;;;;93.52;49.10;;;;;;;-0.10;100.00;96924.72;1706958;82;21761;-81
2022/11/23 07:03:33;;;;;;;88.12;45.70;;;;;;;-0.07;100.00;96923.73;1707502;82;21192;-76
2022/11/23 07:06:05;;;;;;;90.95;46.60;;;;;;;-0.01;100.00;96931.28;1706541;82;21395;-76
2022/11/23 07:08:33;;;;;;;93.95;53.38;;;;;;;0.04;100.00;96926.05;1708213;82;20990;-77
2022/11/23 07:11:02;;;;;;;93.90;54.83;;;;;;;0.12;100.00;96926.20;1706551;82;21005;-81
2022/11/23 07:13:29;;;;;;;94.03;49.80;;;;;;;0.15;100.00;96919.86;1709481;82;21075;-80
2022/11/23 07:15:57;;;;;;;83.80;43.95;;;;;;;0.16;100.00;96920.13;1700514;82;21384;-77
2022/11/23 07:18:25;;;;;;;90.17;50.43;;;;;;;0.20;100.00;96936.47;1705013;82;21557;-77
2022/11/23 07:20:52;;;;;;;85.70;44.38;;;;;;;0.26;100.00;96934.98;1675401;83;21698;-76
2022/11/23 07:23:19;;;;;;;89.17;48.85;;;;;;;0.32;100.00;96932.39;1704415;82;21009;-81
2022/11/23 07:25:45;;;;;;;129.63;81.42;;;;;;;0.33;100.00;96924.16;1705792;82;21017;-81
2022/11/23 07:28:13;;;;;;;99.03;55.03;;;;;;;0.32;100.00;96931.88;1699715;82;20973;-77
2022/11/23 07:30:40;;;;;;;97.70;53.90;;;;;;;0.31;100.00;96925.45;1707291;82;21013;-77
2022/11/23 07:33:09;;;;;;;87.33;47.60;;;;;;;0.32;100.00;96931.06;1715151;82;21131;-81
2022/11/23 07:35:40;;;;;;;87.88;41.23;;;;;;;0.30;100.00;96921.17;1693152;82;21036;-81
2022/11/23 07:38:07;;;;;;;78.45;40.78;;;;;;;0.35;100.00;96922.61;1701906;82;21043;-77
2022/11/23 07:40:38;;;;;;;85.62;42.65;;;;;;;0.36;100.00;96924.22;1708736;82;21023;-81
2022/11/23 07:43:05;;;;;;;107.30;47.23;;;;;;;0.34;100.00;96929.77;1726749;80;21589;-76
2022/11/23 07:45:32;;;;;;;88.67;44.83;;;;;;;0.26;100.00;96931.52;1710205;82;21399;-80
2022/11/23 07:48:04;;;;;;;90.00;44.83;;;;;;;0.21;100.00;96928.75;1701538;82;21485;-76
2022/11/23 07:50:31;;;;;;;88.85;44.90;;;;;;;0.21;100.00;96924.76;1707231;82;21151;-81
2022/11/23 07:52:58;;;;;;;92.20;47.20;;;;;;;0.23;100.00;96929.31;1704545;82;21029;-81
2022/11/23 07:55:25;;;;;;;90.77;42.33;;;;;;;0.24;100.00;96928.27;1711432;82;21021;-80
2022/11/23 07:57:53;;;;;;;98.87;46.00;;;;;;;0.30;100.00;96923.31;1710278;82;21040;-77
2022/11/23 08:00:24;;;;;;;87.02;42.75;;;;;;;0.31;100.00;96926.78;1710909;82;21363;-77
2022/11/23 08:02:51;;;;;;;93.97;46.20;;;;;;;0.34;100.00;96923.63;1704319;82;21004;-77
2022/11/23 08:05:18;;;;;;;83.78;40.35;;;;;;;0.35;100.00;96920.75;1692970;83;21423;-81
2022/11/23 08:07:45;;;;;;;76.53;36.90;;;;;;;0.39;100.00;96935.19;1710577;82;21718;-77
2022/11/23 08:10:12;;;;;;;78.00;34.70;;;;;;;0.37;100.00;96919.98;1705609;82;21017;-76
2022/11/23 08:12:39;;;;;;;85.50;41.88;;;;;;;0.34;100.00;96912.97;1698218;82;21097;-80
2022/11/23 08:15:06;;;;;;;84.65;46.88;;;;;;;0.38;100.00;96920.78;1712882;82;22024;-77
2022/11/23 08:17:33;;;;;;;80.22;39.20;;;;;;;0.40;100.00;96917.34;1709425;82;21106;-77
2022/11/23 08:20:00;;;;;;;71.80;37.60;;;;;;;0.38;100.00;96920.78;1704972;82;21005;-77
2022/11/23 08:22:27;;;;;;;63.98;32.50;;;;;;;0.41;100.00;96926.95;1703797;82;21136;-81
2022/11/23 08:24:54;;;;;;;66.25;30.35;;;;;;;0.47;100.00;96929.99;1705014;82;21068;-77
2022/11/23 08:27:21;;;;;;;67.12;31.73;;;;;;;0.48;100.00;96925.75;1711281;83;21064;-81
2022/11/23 08:29:48;;;;;;;62.98;30.97;;;;;;;0.47;100.00;96924.14;1707780;82;20987;-77
2022/11/23 08:32:15;;;;;;;66.82;32.08;;;;;;;0.50;100.00;96934.30;1698352;82;21051;-81
2022/11/23 08:34:43;;;;;;;66.47;30.15;;;;;;;0.50;100.00;96944.97;1707493;82;21410;-76
2022/11/23 08:37:10;;;;;;;71.07;37.48;;;;;;;0.47;100.00;96942.80;1703268;82;21571;-81
2022/11/23 08:39:37;;;;;;;59.98;28.00;;;;;;;0.44;100.00;96943.81;1699539;82;21065;-77
2022/11/23 08:42:04;;;;;;;58.73;30.70;;;;;;;0.37;100.00;96948.48;1703569;82;21016;-77
2022/11/23 08:44:31;;;;;;;56.98;29.63;;;;;;;0.40;100.00;96945.33;1707586;82;21469;-77
2022/11/23 08:46:58;;;;;;;65.83;30.35;;;;;;;0.28;100.00;96939.55;1710560;82;21189;-81
2022/11/23 08:49:25;;;;;;;64.53;31.30;;;;;;;0.10;100.00;96937.09;1709187;80;21564;-77
2022/11/23 08:51:53;;;;;;;59.85;26.65;;;;;;;0.04;100.00;96937.23;1710675;83;21006;-81
2022/11/23 08:54:23;;;;;;;98.17;59.48;;;;;;;0.17;100.00;96940.43;1710723;82;21631;-77
2022/11/23 08:56:50;;;;;;;;;;;;;;;0.11;100.00;96941.38;1713698;82;21493;-77
2022/11/23 08:59:17;;;;;;;68.22;34.23;;;;;;;0.15;100.00;96939.03;1701304;82;20301;-77
2022/11/23 09:01:44;;;;;;;55.15;26.87;;;;;;;0.16;100.00;96932.13;1705497;82;21103;-81
2022/11/23 09:04:11;;;;;;;67.55;30.70;;;;;;;0.27;100.00;96945.13;1695235;82;21572;-76
2022/11/23 09:06:38;;;;;;;50.65;25.95;;;;;;;0.33;100.00;96946.00;1700807;82;21052;-81
2022/11/23 09:09:05;;;;;;;64.97;31.87;;;;;;;0.31;100.00;96949.44;1704420;82;21449;-77
2022/11/23 09:11:32;;;;;;;61.05;30.17;;;;;;;0.32;100.00;96950.52;1708899;82;21034;-81
2022/11/23 09:13:59;;;;;;;62.98;33.63;;;;;;;0.24;100.00;96945.58;1702559;82;22161;-80
2022/11/23 09:16:26;;;;;;;54.77;27.45;;;;;;;0.38;100.00;96944.24;1707753;82;21076;-81
2022/11/23 09:18:56;;;;;;;51.80;23.80;;;;;;;0.43;100.00;96943.53;1702260;82;21154;-81
2022/11/23 09:21:28;;;;;;;57.55;25.60;;;;;;;0.53;100.00;96934.37;1705361;82;21135;-81
2022/11/23 09:23:52;;;;;;;52.83;25.82;;;;;;;0.53;100.00;96941.84;1699839;82;22319;-77
2022/11/23 09:26:18;;;;;;;62.17;37.55;;;;;;;0.42;100.00;96940.03;1707090;82;21055;-81
2022/11/23 09:28:45;;;;;;;61.48;30.37;;;;;;;0.44;100.00;96932.62;1705309;81;21013;-81
2022/11/23 09:31:12;;;;;;;56.48;26.68;;;;;;;0.29;100.00;96933.69;1702607;82;21024;-82
2022/11/23 09:33:39;;;;;;;205.12;80.32;;;;;;;0.36;100.00;96942.34;1702186;82;21476;-77
2022/11/23 09:36:07;;;;;;;120.40;52.98;;;;;;;0.28;100.00;96939.55;1703307;82;21064;-81
2022/11/23 09:38:33;;;;;;;54.70;25.40;;;;;;;0.24;100.00;96942.39;1690366;82;21079;-81
2022/11/23 09:41:40;;;;;;;149.47;64.22;;;;;;;0.30;100.00;96937.97;1704757;82;21023;-81
2022/11/23 09:44:16;;;;;;;58.92;28.90;;;;;;;0.17;100.00;96940.43;1704158;81;21025;-81
2022/11/23 09:47:10;;;;;;;56.58;27.48;;;;;;;0.19;100.00;96932.19;1704660;82;21492;-76
2022/11/23 09:50:04;;;;;;;93.07;46.02;;;;;;;0.17;100.00;96936.43;1702101;82;21052;-81
2022/11/23 09:52:31;;;;;;;59.85;29.12;;;;;;;0.25;100.00;96924.02;1683368;82;21735;-81
2022/11/23 09:55:12;;;;;;;63.42;33.42;;;;;;;0.24;100.00;96925.07;1705237;82;21017;-77
2022/11/23 09:57:39;;;;;;;62.45;32.95;;;;;;;0.20;100.00;96923.14;1688295;82;21035;-76
2022/11/23 10:00:20;;;;;;;88.85;39.85;;;;;;;0.26;100.00;96923.00;1701594;82;21060;-81
2022/11/23 10:02:47;;;;;;;64.25;31.17;;;;;;;0.25;100.00;96916.03;1703341;80;20992;-81
2022/11/23 10:05:22;;;;;;;56.75;26.77;;;;;;;0.27;100.00;96917.95;1706352;82;21103;-82
2022/11/23 10:08:19;;;;;;;72.58;32.28;;;;;;;0.24;100.00;96922.94;1696350;82;21677;-81
2022/11/23 10:11:09;;;;;;;58.15;29.42;;;;;;;0.25;100.00;96913.89;1706561;82;21024;-77
2022/11/23 10:13:44;;;;;;;68.12;30.02;;;;;;;0.27;100.00;96913.95;1702247;82;20969;-82
2022/11/23 10:16:35;;;;;;;59.48;28.92;;;;;;;0.25;100.00;96912.03;1706563;82;21522;-77
2022/11/23 10:19:45;;;;;;;56.33;25.88;;;;;;;0.15;100.00;96911.86;1691105;82;21051;-76
2022/11/23 10:22:39;;;;;;;59.10;30.27;;;;;;;0.06;100.00;96904.50;1707857;82;22015;-76
2022/11/23 10:25:15;;;;;;;52.53;25.95;;;;;;;0.04;100.00;96910.08;1690817;83;21036;-81
2022/11/23 10:27:44;;;;;;;60.67;28.15;;;;;;;0.03;100.00;96899.66;1707842;82;21535;-77
2022/11/23 10:30:13;;;;;;;62.70;28.12;;;;;;;-0.02;100.00;96905.17;1706893;82;20997;-77
2022/11/23 10:32:52;;;;;;;62.60;25.60;;;;;;;0.06;100.00;96910.64;1695632;82;21683;-77
2022/11/23 10:35:31;;;;;;;57.00;26.62;;;;;;;0.11;100.00;96909.41;1695328;82;21087;-81
2022/11/23 10:38:16;;;;;;;63.98;27.10;;;;;;;0.15;100.00;96913.72;1699310;82;21129;-81
2022/11/23 10:41:11;;;;;;;56.30;27.35;;;;;;;0.19;100.00;96902.88;1700670;82;21069;-80
2022/11/23 10:43:52;;;;;;;56.45;23.52;;;;;;;0.12;100.00;96899.55;1703201;82;21035;-77
2022/11/23 10:46:33;;;;;;;65.00;27.00;;;;;;;0.22;100.00;96904.53;1711230;82;21097;-77
2022/11/23 10:49:20;;;;;;;61.98;28.70;;;;;;;0.21;100.00;96902.92;1716173;82;21574;-77
2022/11/23 10:52:07;;;;;;;69.53;29.32;;;;;;;0.20;100.00;96897.84;1706926;82;21846;-80
2022/11/23 10:54:48;;;;;;;63.83;26.85;;;;;;;0.10;100.00;96896.33;1706952;82;21595;-81
2022/11/23 10:57:43;;;;;;;78.70;30.70;;;;;;;0.07;100.00;96894.13;1717916;82;21571;-76
2022/11/23 11:00:15;;;;;;;64.10;27.32;;;;;;;0.07;100.00;96884.80;1709029;82;20981;-81
2022/11/23 11:02:47;;;;;;;120.42;44.85;;;;;;;-0.05;100.00;96880.88;1711966;82;21119;-81
2022/11/23 11:05:36;;;;;;;144.17;56.92;;;;;;;-0.02;100.00;96888.38;1706121;82;22205;-76
2022/11/23 11:08:15;;;;;;;93.85;40.88;;;;;;;-0.03;100.00;96882.78;1706338;81;21387;-81
2022/11/23 11:10:48;;;;;;;98.52;47.17;;;;;;;0.10;100.00;96873.69;1708475;82;21033;-76
2022/11/23 11:13:22;;;;;;;81.67;36.80;;;;;;;0.17;100.00;96879.64;1695866;82;21123;-77
2022/11/23 11:15:57;;;;;;;60.63;23.70;;;;;;;0.25;100.00;96881.39;1699813;83;21044;-81
2022/11/23 11:18:27;;;;;;;80.50;36.40;;;;;;;0.35;100.00;96878.64;1691246;82;21044;-77
2022/11/23 11:20:57;;;;;;;53.17;24.15;;;;;;;0.28;100.00;96874.79;1707798;82;21532;-81